Time;durP1;ratioP1;P1;durP2;ratioP2;P2;SDS_P1;SDS_P2;PMS_P1;PMS_P2;Temp;Humidity;BMP_temperature;BMP_pressure;BME280_temperature;BME280_humidity;BME280_pressure;Samples;Min_cycle;Max_cycle;Signal;HPM_P1;HPM_P2
2023/06/27 00:01:09;;;;;;;;;;;;;;;16.65;64.09;98958.28;1684869;84;20246;-67
2023/06/27 00:03:36;;;;;;;;;;;;;;;16.60;64.07;98952.56;1683871;85;20155;-65
2023/06/27 00:06:04;;;;;;;;;;;;;;;16.54;64.32;98947.81;1684983;85;20158;-65
2023/06/27 00:08:34;;;;;;;;;;;;;;;16.50;64.95;98946.42;1685441;85;20101;-64
2023/06/27 00:11:01;;;;;;;;;;;;;;;16.47;65.43;98942.72;1697072;83;20513;-64
2023/06/27 00:13:28;;;;;;;;;;;;;;;16.39;65.83;98937.27;1700628;83;20565;-64
2023/06/27 00:15:55;;;;;;;;;;;;;;;16.35;65.90;98940.61;1692345;84;20103;-64
2023/06/27 00:18:22;;;;;;;;;;;;;;;16.36;66.11;98933.56;1703942;83;20491;-63
2023/06/27 00:20:51;;;;;;;;;;;;;;;16.32;66.37;98932.48;1705768;83;20130;-64
2023/06/27 00:23:22;;;;;;;;;;;;;;;16.31;66.81;98934.77;1704637;83;20195;-62
2023/06/27 00:25:48;;;;;;;;;;;;;;;16.26;66.99;98931.68;1703448;83;20188;-62
2023/06/27 00:28:15;;;;;;;;;;;;;;;16.22;67.32;98924.18;1706402;83;20114;-63
2023/06/27 00:30:41;;;;;;;;;;;;;;;16.22;67.73;98927.64;1705310;83;20170;-62
2023/06/27 00:33:09;;;;;;;;;;;;;;;16.21;67.82;98928.59;1706129;82;20165;-63
2023/06/27 00:35:37;;;;;;;;;;;;;;;16.19;68.39;98927.91;1703323;82;20220;-64
2023/06/27 00:38:08;;;;;;;;;;;;;;;16.17;68.63;98927.19;1704089;83;20176;-62
2023/06/27 00:40:36;;;;;;;;;;;;;;;16.17;69.06;98927.19;1704670;83;20115;-62
2023/06/27 00:43:00;;;;;;;;;;;;;;;16.18;68.97;98928.02;1693605;83;20112;-62
2023/06/27 00:45:27;;;;;;;;;;;;;;;16.18;69.44;98926.21;1685667;83;20136;-62
2023/06/27 00:47:56;;;;;;;;;;;;;;;16.15;69.65;98927.78;1703445;83;20095;-61
2023/06/27 00:50:22;;;;;;;;;;;;;;;16.17;69.89;98923.23;1700301;83;20228;-61
2023/06/27 00:52:53;;;;;;;;;;;;;;;16.15;70.16;98921.69;1732435;81;20514;-62
2023/06/27 00:55:21;;;;;;;;;;;;;;;16.13;70.30;98915.22;1734887;81;20393;-61
2023/06/27 00:57:54;;;;;;;;;;;;;;;16.15;70.73;98908.03;1737253;81;20105;-61
2023/06/27 01:00:20;;;;;;;;;;;;;;;16.17;70.99;98907.44;1695948;83;20207;-61
2023/06/27 01:02:46;;;;;;;;;;;;;;;16.22;71.48;98906.58;1718695;83;20168;-62
2023/06/27 01:05:15;;;;;;;;;;;;;;;16.26;71.78;98904.02;1690170;83;20116;-62
2023/06/27 01:07:56;;;;;;;;;;;;;;;16.29;72.04;98899.81;1736414;82;20121;-62
2023/06/27 01:10:26;;;;;;;;;;;;;;;16.29;72.22;98901.13;1719531;82;20160;-61
2023/06/27 01:13:00;;;;;;;;;;;;;;;16.32;72.41;98893.45;1717111;82;20180;-63
2023/06/27 01:15:27;;;;;;;;;;;;;;;16.37;73.23;98882.53;1680368;83;20221;-62
2023/06/27 01:17:53;;;;;;;;;;;;;;;16.39;73.64;98885.89;1733197;82;20133;-62
2023/06/27 01:20:19;;;;;;;;;;;;;;;16.36;73.82;98887.47;1717453;82;20136;-64
2023/06/27 01:22:47;;;;;;;;;;;;;;;16.37;73.89;98874.15;1678501;85;20175;-63
2023/06/27 01:25:14;;;;;;;;;;;;;;;16.37;74.52;98879.91;1714939;82;20109;-62
2023/06/27 01:27:39;;;;;;;;;;;;;;;16.37;74.90;98875.95;1696272;84;20112;-63
2023/06/27 01:30:11;;;;;;;;;;;;;;;16.38;75.06;98868.39;1696290;84;20113;-61
2023/06/27 01:32:41;;;;;;;;;;;;;;;16.37;75.61;98872.00;1697015;83;20686;-61
2023/06/27 01:35:21;;;;;;;;;;;;;;;16.30;76.30;98874.33;1694530;83;20176;-63
2023/06/27 01:37:52;;;;;;;;;;;;;;;16.15;76.68;98860.63;1694395;83;20152;-62
2023/06/27 01:40:22;;;;;;;;;;;;;;;16.07;78.14;98863.06;1729138;81;20187;-63
2023/06/27 01:42:50;;;;;;;;;;;;;;;15.98;79.16;98867.80;1695970;84;20114;-63
2023/06/27 01:45:17;;;;;;;;;;;;;;;15.79;79.51;98860.09;1695439;83;20105;-65
2023/06/27 01:47:44;;;;;;;;;;;;;;;15.72;80.18;98861.58;1694878;83;20152;-62
2023/06/27 01:50:11;;;;;;;;;;;;;;;15.68;79.90;98858.83;1693709;83;20162;-63
2023/06/27 01:52:37;;;;;;;;;;;;;;;15.58;80.97;98864.47;1693883;83;20138;-64
2023/06/27 01:55:04;;;;;;;;;;;;;;;15.51;81.10;98865.92;1695498;83;20194;-66
2023/06/27 01:57:31;;;;;;;;;;;;;;;15.42;81.11;98864.87;1696169;83;20205;-64
2023/06/27 01:59:57;;;;;;;;;;;;;;;15.32;81.68;98863.48;1695265;83;20117;-63
2023/06/27 02:02:24;;;;;;;;;;;;;;;15.20;81.19;98857.87;1696866;83;20179;-62
2023/06/27 02:04:50;;;;;;;;;;;;;;;14.99;81.06;98858.63;1695257;83;20542;-62
2023/06/27 02:07:16;;;;;;;;;;;;;;;14.86;82.69;98870.23;1694710;83;20118;-61
2023/06/27 02:09:42;;;;;;;;;;;;;;;14.79;83.33;98869.88;1697519;83;20267;-61
2023/06/27 02:12:09;;;;;;;;;;;;;;;14.73;82.66;98870.34;1695525;83;20166;-63
2023/06/27 02:14:35;;;;;;;;;;;;;;;14.67;83.00;98870.82;1696883;83;20186;-62
2023/06/27 02:17:01;;;;;;;;;;;;;;;14.62;82.49;98870.33;1717832;82;20105;-61
2023/06/27 02:19:28;;;;;;;;;;;;;;;14.61;82.30;98869.50;1682730;83;20406;-61
2023/06/27 02:21:54;;;;;;;;;;;;;;;14.59;82.51;98879.32;1696910;83;20093;-62
2023/06/27 02:24:20;;;;;;;;;;;;;;;14.59;83.23;98886.34;1696316;84;20180;-63
2023/06/27 02:26:46;;;;;;;;;;;;;;;14.61;83.53;98869.50;1694798;83;20165;-63
2023/06/27 02:29:12;;;;;;;;;;;;;;;14.64;83.87;98877.14;1695521;83;20135;-62
2023/06/27 02:31:38;;;;;;;;;;;;;;;14.71;84.38;98872.27;1696878;83;20175;-62
2023/06/27 02:34:04;;;;;;;;;;;;;;;14.74;84.64;98872.03;1695645;83;20168;-62
2023/06/27 02:36:30;;;;;;;;;;;;;;;14.80;85.18;98870.23;1697724;83;20103;-61
2023/06/27 02:38:59;;;;;;;;;;;;;;;14.80;85.04;98864.98;1695695;83;20491;-62
2023/06/27 02:41:24;;;;;;;;;;;;;;;14.84;85.62;98865.08;1693401;83;20181;-64
2023/06/27 02:43:51;;;;;;;;;;;;;;;14.85;86.01;98853.62;1697599;83;20406;-61
2023/06/27 02:46:17;;;;;;;;;;;;;;;14.85;86.06;98847.06;1697133;83;20117;-62
2023/06/27 02:48:43;;;;;;;;;;;;;;;14.87;86.47;98835.95;1693498;83;20158;-62
2023/06/27 02:51:09;;;;;;;;;;;;;;;14.91;86.97;98829.48;1695609;83;20178;-62
2023/06/27 02:53:35;;;;;;;;;;;;;;;14.93;87.26;98830.20;1695832;83;20568;-63
2023/06/27 02:56:03;;;;;;;;;;;;;;;14.96;87.77;98824.70;1691319;83;20185;-61
2023/06/27 02:58:29;;;;;;;;;;;;;;;14.96;87.71;98832.59;1695212;83;20453;-62
2023/06/27 03:00:57;;;;;;;;;;;;;;;14.99;87.97;98834.97;1696037;83;20181;-61
2023/06/27 03:03:23;;;;;;;;;;;;;;;15.02;88.33;98833.06;1695292;83;20426;-62
2023/06/27 03:05:49;;;;;;;;;;;;;;;15.01;88.62;98834.83;1694328;83;20168;-62
2023/06/27 03:08:16;;;;;;;;;;;;;;;15.02;88.34;98838.32;1693872;83;20469;-63
2023/06/27 03:10:42;;;;;;;;;;;;;;;15.04;88.77;98831.12;1689806;83;20116;-61
2023/06/27 03:13:08;;;;;;;;;;;;;;;15.05;88.57;98828.88;1691312;83;20172;-62
2023/06/27 03:15:35;;;;;;;;;;;;;;;15.05;88.83;98828.39;1691798;83;20143;-64
2023/06/27 03:18:01;;;;;;;;;;;;;;;15.05;89.24;98822.30;1718185;82;20387;-61
2023/06/27 03:20:27;;;;;;;;;;;;;;;15.06;89.41;98823.95;1692189;83;20199;-62
2023/06/27 03:22:54;;;;;;;;;;;;;;;15.09;89.43;98818.45;1692159;83;20143;-61
2023/06/27 03:25:20;;;;;;;;;;;;;;;15.12;89.63;98814.27;1709067;83;20192;-61
2023/06/27 03:27:46;;;;;;;;;;;;;;;15.11;89.23;98803.40;1704385;83;20142;-62
2023/06/27 03:30:12;;;;;;;;;;;;;;;15.07;89.72;98798.02;1702939;83;20186;-63
2023/06/27 03:32:39;;;;;;;;;;;;;;;15.03;90.26;98796.61;1718032;83;20101;-62
2023/06/27 03:35:05;;;;;;;;;;;;;;;15.00;89.90;98795.89;1736788;82;20128;-61
2023/06/27 03:37:33;;;;;;;;;;;;;;;14.98;89.60;98799.14;1743363;82;20098;-62
2023/06/27 03:40:00;;;;;;;;;;;;;;;14.99;89.95;98796.85;1747011;82;20509;-61
2023/06/27 03:42:26;;;;;;;;;;;;;;;15.00;89.65;98797.20;1717120;82;20115;-62
2023/06/27 03:44:52;;;;;;;;;;;;;;;14.97;89.88;98794.81;1718692;83;20185;-62
2023/06/27 03:47:18;;;;;;;;;;;;;;;14.91;89.84;98799.26;1692033;83;20127;-62
2023/06/27 03:49:45;;;;;;;;;;;;;;;14.90;89.85;98794.97;1686374;83;20172;-62
2023/06/27 03:52:11;;;;;;;;;;;;;;;14.89;89.95;98793.28;1709540;83;20446;-62
2023/06/27 03:54:37;;;;;;;;;;;;;;;14.84;90.14;98809.89;1704451;83;20125;-62
2023/06/27 03:57:04;;;;;;;;;;;;;;;14.84;90.10;98809.89;1701226;83;21197;-63
2023/06/27 03:59:30;;;;;;;;;;;;;;;14.82;90.06;98806.57;1700896;83;20214;-62
2023/06/27 04:01:56;;;;;;;;;;;;;;;14.83;90.19;98814.80;1686119;84;20183;-61
2023/06/27 04:04:22;;;;;;;;;;;;;;;14.83;90.35;98813.48;1717331;83;20130;-63
2023/06/27 04:06:48;;;;;;;;;;;;;;;14.83;90.64;98817.91;1693509;83;20199;-61
2023/06/27 04:09:14;;;;;;;;;;;;;;;14.84;90.65;98807.26;1691666;83;20430;-62
2023/06/27 04:11:40;;;;;;;;;;;;;;;14.78;90.36;98818.27;1711097;82;20186;-61
2023/06/27 04:14:07;;;;;;;;;;;;;;;14.79;90.56;98825.21;1706375;82;20108;-61
2023/06/27 04:16:33;;;;;;;;;;;;;;;14.80;90.39;98816.36;1686525;84;20107;-61
2023/06/27 04:19:00;;;;;;;;;;;;;;;14.77;90.83;98832.38;1715871;83;20465;-62
2023/06/27 04:21:26;;;;;;;;;;;;;;;14.74;90.49;98837.88;1691025;83;20222;-61
2023/06/27 04:23:54;;;;;;;;;;;;;;;14.75;90.63;98836.91;1719201;83;20109;-61
2023/06/27 04:26:20;;;;;;;;;;;;;;;14.77;91.06;98842.88;1719732;83;20206;-61
2023/06/27 04:28:49;;;;;;;;;;;;;;;14.78;90.98;98842.74;1692112;83;20227;-64
2023/06/27 04:31:16;;;;;;;;;;;;;;;14.79;91.12;98848.86;1717975;83;20215;-62
2023/06/27 04:33:42;;;;;;;;;;;;;;;14.82;91.37;98848.62;1711129;82;20467;-63
2023/06/27 04:36:10;;;;;;;;;;;;;;;14.88;91.44;98847.30;1689586;84;20176;-62
2023/06/27 04:38:42;;;;;;;;;;;;;;;14.89;90.89;98839.27;1689442;84;20160;-61
2023/06/27 04:41:09;;;;;;;;;;;;;;;14.87;90.92;98844.30;1689124;83;20471;-61
2023/06/27 04:43:36;;;;;;;;;;;;;;;14.88;91.03;98850.75;1686912;83;20517;-63
2023/06/27 04:46:04;;;;;;;;;;;;;;;14.86;90.63;98852.66;1708722;83;20150;-62
2023/06/27 04:48:30;;;;;;;;;;;;;;;14.87;91.05;98856.98;1700495;83;20454;-62
2023/06/27 04:50:56;;;;;;;;;;;;;;;14.91;91.06;98843.94;1688528;84;20119;-62
2023/06/27 04:53:24;;;;;;;;;;;;;;;14.93;91.45;98851.23;1718534;83;20096;-61
2023/06/27 04:55:52;;;;;;;;;;;;;;;15.03;91.44;98855.75;1718480;82;20214;-62
2023/06/27 04:58:21;;;;;;;;;;;;;;;15.07;91.61;98849.28;1716836;83;20105;-64
2023/06/27 05:00:47;;;;;;;;;;;;;;;15.06;91.36;98846.30;1690266;83;20154;-62
2023/06/27 05:03:20;;;;;;;;;;;;;;;15.08;91.43;98848.34;1709134;83;20170;-62
2023/06/27 05:05:45;;;;;;;;;;;;;;;15.09;91.69;98855.26;1707587;83;20181;-62
2023/06/27 05:08:11;;;;;;;;;;;;;;;15.13;91.85;98840.92;1701904;83;20237;-62
2023/06/27 05:10:37;;;;;;;;;;;;;;;15.15;91.99;98841.62;1699952;83;20169;-62
2023/06/27 05:13:03;;;;;;;;;;;;;;;15.19;92.17;98831.23;1712855;83;20200;-61
2023/06/27 05:15:30;;;;;;;;;;;;;;;15.25;92.32;98837.78;1707956;83;20156;-61
2023/06/27 05:18:15;;;;;;;;;;;;;;;15.30;92.44;98833.83;1688888;83;20438;-63
2023/06/27 05:20:38;;;;;;;;;;;;;;;15.37;92.36;98838.92;1718040;82;20174;-62
2023/06/27 05:23:06;;;;;;;;;;;;;;;15.47;92.63;98838.20;1687154;83;20132;-63
2023/06/27 05:25:32;;;;;;;;;;;;;;;15.57;92.23;98836.47;1706692;83;20144;-62
2023/06/27 05:27:59;;;;;;;;;;;;;;;15.61;92.25;98830.02;1683845;83;20153;-61
2023/06/27 05:30:26;;;;;;;;;;;;;;;15.60;91.99;98828.33;1709901;83;20148;-62
2023/06/27 05:32:52;;;;;;;;;;;;;;;15.65;92.23;98823.52;1709254;84;20156;-61
2023/06/27 05:35:18;;;;;;;;;;;;;;;15.70;92.48;98818.75;1692590;83;20171;-61
2023/06/27 05:37:44;;;;;;;;;;;;;;;15.78;92.36;98811.05;1684529;85;20222;-62
2023/06/27 05:40:11;;;;;;;;;;;;;;;15.80;92.19;98817.03;1713001;83;20184;-62
2023/06/27 05:42:37;;;;;;;;;;;;;;;15.83;92.55;98814.14;1747389;81;20095;-62
2023/06/27 05:45:04;;;;;;;;;;;;;;;15.92;92.43;98815.17;1750325;81;20126;-62
2023/06/27 05:47:30;;;;;;;;;;;;;;;15.95;92.35;98808.81;1713274;83;20192;-61
2023/06/27 05:49:56;;;;;;;;;;;;;;;15.87;92.06;98810.28;1684940;84;20107;-61
2023/06/27 05:52:23;;;;;;;;;;;;;;;15.86;92.38;98811.25;1690133;83;20116;-62
2023/06/27 05:54:49;;;;;;;;;;;;;;;15.89;92.41;98804.41;1689927;83;20184;-61
2023/06/27 05:57:15;;;;;;;;;;;;;;;15.84;92.31;98822.39;1697484;83;20159;-63
2023/06/27 05:59:41;;;;;;;;;;;;;;;15.79;92.47;98818.47;1722660;82;20109;-61
2023/06/27 06:02:07;;;;;;;;;;;;;;;15.79;92.53;98817.98;1718350;82;20111;-61
2023/06/27 06:04:38;;;;;;;;;;;;;;;15.75;92.67;98825.79;1717755;82;20411;-63
2023/06/27 06:07:06;;;;;;;;;;;;;;;15.78;93.03;98818.95;1701245;82;20410;-61
2023/06/27 06:09:34;;;;;;;;;;;;;;;15.91;93.04;98831.08;1706302;82;20221;-63
2023/06/27 06:12:00;;;;;;;;;;;;;;;16.02;92.88;98828.38;1697228;83;20187;-61
2023/06/27 06:14:27;;;;;;;;;;;;;;;16.15;93.15;98825.08;1743733;82;20107;-62
2023/06/27 06:16:53;;;;;;;;;;;;;;;16.24;92.66;98817.70;1746372;81;20108;-61
2023/06/27 06:19:20;;;;;;;;;;;;;;;16.29;92.59;98831.33;1746299;81;20408;-61
2023/06/27 06:21:46;;;;;;;;;;;;;;;16.34;92.69;98823.87;1744415;81;20480;-60
2023/06/27 06:24:12;;;;;;;;;;;;;;;16.40;92.29;98824.31;1744325;81;20128;-59
2023/06/27 06:26:38;;;;;;;;;;;;;;;16.40;92.25;98821.68;1714790;83;20160;-60
2023/06/27 06:29:08;;;;;;;;;;;;;;;16.44;92.31;98828.34;1745035;81;20107;-60
2023/06/27 06:31:34;;;;;;;;;;;;;;;16.46;92.13;98825.10;1745390;82;20185;-63
2023/06/27 06:34:00;;;;;;;;;;;;;;;16.44;92.09;98834.47;1748343;80;20173;-60
2023/06/27 06:36:39;;;;;;;;;;;;;;;16.46;92.25;98837.78;1747684;80;20111;-59
2023/06/27 06:39:05;;;;;;;;;;;;;;;16.46;92.10;98841.73;1742034;82;20218;-61
2023/06/27 06:41:33;;;;;;;;;;;;;;;16.51;92.05;98846.62;1743243;81;20154;-60
2023/06/27 06:43:59;;;;;;;;;;;;;;;16.53;91.96;98843.39;1745521;81;20183;-60
2023/06/27 06:46:26;;;;;;;;;;;;;;;16.57;92.04;98839.51;1741253;81;20179;-63
2023/06/27 06:48:52;;;;;;;;;;;;;;;16.59;91.72;98841.53;1743165;82;20165;-59
2023/06/27 06:51:18;;;;;;;;;;;;;;;16.64;91.79;98841.98;1744049;80;20115;-63
2023/06/27 06:53:48;;;;;;;;;;;;;;;16.72;91.91;98834.24;1744639;81;20151;-59
2023/06/27 06:56:12;;;;;;;;;;;;;;;16.84;91.90;98843.41;1740409;81;20123;-60
2023/06/27 06:58:39;;;;;;;;;;;;;;;16.94;91.68;98835.87;1738235;81;20183;-60
2023/06/27 07:01:05;;;;;;;;;;;;;;;17.02;91.56;98833.86;1741913;81;20181;-59
2023/06/27 07:03:34;;;;;;;;;;;;;;;17.15;91.45;98838.41;1743410;82;20210;-60
2023/06/27 07:06:01;;;;;;;;;;;;;;;17.26;91.06;98836.64;1742310;81;20465;-60
2023/06/27 07:08:27;;;;;;;;;;;;;;;17.38;91.54;98840.31;1745784;82;20166;-61
2023/06/27 07:10:53;;;;;;;;;;;;;;;17.63;91.94;98821.79;1744944;81;20087;-62
2023/06/27 07:13:19;;;;;;;;;;;;;;;18.05;91.07;98836.03;1744311;81;20104;-61
2023/06/27 07:15:45;;;;;;;;;;;;;;;18.37;91.25;98845.41;1752228;81;20202;-60
2023/06/27 07:18:13;;;;;;;;;;;;;;;18.48;89.72;98838.62;1748981;82;21131;-60
2023/06/27 07:20:40;;;;;;;;;;;;;;;18.56;89.76;98841.38;1751634;81;20260;-61
2023/06/27 07:23:07;;;;;;;;;;;;;;;18.71;89.20;98847.55;1747177;81;20169;-61
2023/06/27 07:25:34;;;;;;;;;;;;;;;18.90;89.78;98840.84;1745374;82;20115;-61
2023/06/27 07:28:01;;;;;;;;;;;;;;;19.37;90.56;98841.20;1710462;84;20199;-61
2023/06/27 07:30:32;;;;;;;;;;;;;;;19.79;90.12;98838.81;1692702;83;20505;-61
2023/06/27 07:32:55;;;;;;;;;;;;;;;19.82;87.48;98835.03;1683102;83;20178;-62
2023/06/27 07:35:21;;;;;;;;;;;;;;;20.24;90.38;98839.14;1683489;83;20174;-61
2023/06/27 07:37:47;;;;;;;;;;;;;;;21.19;89.30;98841.28;1705362;83;20157;-62
2023/06/27 07:40:14;;;;;;;;;;;;;;;21.31;86.35;98835.66;1731072;82;20189;-62
2023/06/27 07:42:40;;;;;;;;;;;;;;;21.34;85.93;98832.69;1717289;82;20144;-61
2023/06/27 07:45:07;;;;;;;;;;;;;;;21.78;87.38;98837.75;1711690;82;20179;-60
2023/06/27 07:47:35;;;;;;;;;;;;;;;22.15;85.87;98821.78;1723150;82;20224;-61
2023/06/27 07:50:01;;;;;;;;;;;;;;;23.06;89.27;98827.22;1715494;82;20262;-61
2023/06/27 07:52:27;;;;;;;;;;;;;;;24.31;86.24;98828.63;1685756;83;20200;-61
2023/06/27 07:54:54;;;;;;;;;;;;;;;24.12;80.85;98828.63;1684924;83;20171;-61
2023/06/27 07:57:20;;;;;;;;;;;;;;;23.54;80.93;98841.24;1714730;82;20500;-61
2023/06/27 07:59:46;;;;;;;;;;;;;;;23.64;83.59;98836.52;1694152;83;20195;-62
2023/06/27 08:02:12;;;;;;;;;;;;;;;24.71;85.17;98842.55;1681198;83;20227;-62
2023/06/27 08:04:38;;;;;;;;;;;;;;;25.25;79.87;98835.23;1707604;83;20158;-63
2023/06/27 08:07:06;;;;;;;;;;;;;;;24.85;74.26;98828.05;1697448;83;20176;-62
2023/06/27 08:09:32;;;;;;;;;;;;;;;23.85;75.79;98839.88;1694028;83;20195;-63
2023/06/27 08:12:03;;;;;;;;;;;;;;;23.29;78.61;98835.24;1710995;82;20256;-62
2023/06/27 08:14:29;;;;;;;;;;;;;;;23.28;75.57;98823.77;1675379;83;20193;-63
2023/06/27 08:16:56;;;;;;;;;;;;;;;23.31;78.02;98836.73;1674335;84;20216;-66
2023/06/27 08:19:23;;;;;;;;;;;;;;;23.09;77.61;98842.84;1673394;85;20514;-64
2023/06/27 08:21:49;;;;;;;;;;;;;;;22.78;77.34;98842.28;1680849;84;20148;-62
2023/06/27 08:24:16;;;;;;;;;;;;;;;22.55;77.46;98847.52;1678343;84;20258;-62
2023/06/27 08:26:42;;;;;;;;;;;;;;;22.21;75.24;98843.73;1680506;84;20190;-63
2023/06/27 08:29:08;;;;;;;;;;;;;;;21.74;76.42;98844.41;1680134;84;20201;-61
2023/06/27 08:31:34;;;;;;;;;;;;;;;21.42;76.90;98853.98;1681170;84;20214;-62
2023/06/27 08:34:06;;;;;;;;;;;;;;;21.23;76.18;98853.25;1678189;84;20234;-62
2023/06/27 08:36:29;;;;;;;;;;;;;;;21.10;76.64;98852.88;1672416;85;20236;-62
2023/06/27 08:38:56;;;;;;;;;;;;;;;22.75;82.70;98843.95;1680148;84;20159;-62
2023/06/27 08:41:22;;;;;;;;;;;;;;;25.00;78.60;98851.55;1682110;84;20209;-62
2023/06/27 08:43:54;;;;;;;;;;;;;;;25.79;75.72;98850.27;1681550;84;20266;-62
2023/06/27 08:46:29;;;;;;;;;;;;;;;26.00;73.02;98854.82;1660163;85;20196;-62
2023/06/27 08:49:05;;;;;;;;;;;;;;;25.52;71.93;98866.58;1679057;84;20194;-64
2023/06/27 08:51:35;;;;;;;;;;;;;;;24.85;71.48;98863.58;1679346;84;20179;-62
2023/06/27 08:54:03;;;;;;;;;;;;;;;23.97;70.78;98865.59;1677083;84;20205;-62
2023/06/27 08:56:29;;;;;;;;;;;;;;;23.27;71.00;98870.02;1693290;84;20166;-62
2023/06/27 08:58:59;;;;;;;;;;;;;;;22.65;71.05;98880.56;1669651;84;20222;-62
2023/06/27 09:01:30;;;;;;;;;;;;;;;22.11;71.30;98884.59;1681911;84;20528;-63
2023/06/27 09:04:03;;;;;;;;;;;;;;;21.59;71.17;98890.22;1697628;83;20181;-61
2023/06/27 09:06:27;;;;;;;;;;;;;;;21.24;71.31;98897.38;1679194;84;20505;-61
2023/06/27 09:08:55;;;;;;;;;;;;;;;21.08;70.99;98898.64;1682832;85;20223;-63
2023/06/27 09:11:35;;;;;;;;;;;;;;;;;;;;;
2023/06/27 09:14:05;;;;;;;;;;;;;;;20.90;71.14;98900.56;1671905;83;20147;-61
2023/06/27 09:16:37;;;;;;;;;;;;;;;20.79;71.08;98885.25;1743909;81;20213;-61
2023/06/27 09:19:04;;;;;;;;;;;;;;;21.13;71.96;98901.66;1743607;80;20516;-60
2023/06/27 09:21:33;;;;;;;;;;;;;;;22.13;74.25;98887.92;1736699;81;20185;-62
2023/06/27 09:24:00;;;;;;;;;;;;;;;24.29;74.38;98887.98;1738566;81;20102;-62
2023/06/27 09:26:31;;;;;;;;;;;;;;;26.23;71.86;98889.88;1739767;81;20177;-62
2023/06/27 09:28:58;;;;;;;;;;;;;;;28.62;72.33;98880.00;1740888;81;20186;-62
2023/06/27 09:31:24;;;;;;;;;;;;;;;30.42;66.87;98877.23;1738766;81;20170;-61
2023/06/27 09:33:50;;;;;;;;;;;;;;;29.78;62.95;98895.84;1735855;81;20170;-62
2023/06/27 09:36:31;;;;;;;;;;;;;;;28.82;64.21;98908.20;1736307;81;20505;-62
2023/06/27 09:38:59;;;;;;;;;;;;;;;27.27;61.62;98914.06;1696147;83;20237;-62
2023/06/27 09:41:29;;;;;;;;;;;;;;;25.88;65.16;98919.22;1694536;83;20195;-62
2023/06/27 09:43:56;;;;;;;;;;;;;;;24.59;64.57;98927.25;1688853;83;20229;-61
2023/06/27 09:46:24;;;;;;;;;;;;;;;23.31;65.76;98942.44;1692569;83;20186;-61
2023/06/27 09:48:52;;;;;;;;;;;;;;;22.32;65.90;98940.45;1716350;81;20212;-62
2023/06/27 09:51:21;;;;;;;;;;;;;;;21.55;66.49;98928.70;1683940;83;20187;-60
2023/06/27 09:53:49;;;;;;;;;;;;;;;21.36;66.92;98928.95;1738913;81;20182;-61
2023/06/27 09:56:15;;;;;;;;;;;;;;;21.12;66.96;98943.80;1740654;81;20463;-61
2023/06/27 09:58:45;;;;;;;;;;;;;;;20.88;66.77;98951.63;1740029;81;20178;-62
2023/06/27 10:01:11;;;;;;;;;;;;;;;20.59;66.74;98955.42;1739748;81;20540;-62
2023/06/27 10:03:48;;;;;;;;;;;;;;;20.24;66.48;98957.09;1693747;83;20163;-64
2023/06/27 10:06:10;;;;;;;;;;;;;;;19.66;66.06;98958.39;1664439;84;20181;-64
2023/06/27 10:08:36;;;;;;;;;;;;;;;18.93;66.26;98966.22;1694941;83;20208;-64
2023/06/27 10:11:09;;;;;;;;;;;;;;;18.40;67.50;98958.79;1663029;85;20169;-64
2023/06/27 10:13:36;;;;;;;;;;;;;;;17.79;69.24;98964.34;1654035;85;20188;-64
2023/06/27 10:16:05;;;;;;;;;;;;;;;17.11;68.17;98957.04;1661927;85;20119;-64
2023/06/27 10:18:35;;;;;;;;;;;;;;;16.60;69.32;98957.83;1660374;85;20546;-64
2023/06/27 10:21:07;;;;;;;;;;;;;;;16.37;69.51;98961.57;1637067;85;20675;-66
2023/06/27 10:23:31;;;;;;;;;;;;;;;16.25;69.65;98956.36;1660999;85;20137;-63
2023/06/27 10:26:04;;;;;;;;;;;;;;;16.16;70.02;98961.53;1661697;85;20539;-64
2023/06/27 10:28:31;;;;;;;;;;;;;;;16.14;70.48;98976.16;1661806;85;20118;-64
2023/06/27 10:31:04;;;;;;;;;;;;;;;16.14;71.18;98969.58;1661249;85;20201;-63
2023/06/27 10:33:31;;;;;;;;;;;;;;;16.01;71.07;98976.80;1659314;85;20161;-63
2023/06/27 10:36:05;;;;;;;;;;;;;;;15.88;70.96;98985.71;1660367;85;20168;-64
2023/06/27 10:38:37;;;;;;;;;;;;;;;15.81;71.25;98989.78;1661415;85;20176;-63
2023/06/27 10:41:14;;;;;;;;;;;;;;;15.80;71.41;98988.13;1663607;85;20190;-64
2023/06/27 10:43:48;;;;;;;;;;;;;;;15.80;72.61;98996.02;1670404;84;20180;-64
2023/06/27 10:46:22;;;;;;;;;;;;;;;15.77;73.63;99001.53;1678216;83;20218;-62
2023/06/27 10:48:49;;;;;;;;;;;;;;;15.72;72.80;99001.06;1653383;85;20323;-65
2023/06/27 10:51:18;;;;;;;;;;;;;;;15.79;72.94;98998.27;1691495;83;20184;-62
2023/06/27 10:53:46;;;;;;;;;;;;;;;15.93;73.36;98995.02;1679704;83;20584;-64
2023/06/27 10:56:20;;;;;;;;;;;;;;;16.06;73.36;99006.23;1654384;84;20164;-62
2023/06/27 10:58:45;;;;;;;;;;;;;;;16.08;73.50;98997.73;1668946;85;20534;-63
2023/06/27 11:01:14;;;;;;;;;;;;;;;16.10;73.44;98997.97;1665801;84;20187;-63
2023/06/27 11:03:42;;;;;;;;;;;;;;;15.98;72.83;99002.07;1666823;85;20173;-64
2023/06/27 11:06:09;;;;;;;;;;;;;;;15.91;73.67;99007.46;1665610;85;20136;-63
2023/06/27 11:08:40;;;;;;;;;;;;;;;15.95;73.89;99008.91;1667788;85;20197;-63
2023/06/27 11:11:07;;;;;;;;;;;;;;;15.86;74.33;99007.37;1668920;84;20116;-63
2023/06/27 11:13:35;;;;;;;;;;;;;;;15.78;75.34;99008.45;1680575;82;20219;-64
2023/06/27 11:16:11;;;;;;;;;;;;;;;15.79;74.51;99014.55;1702571;83;20304;-63
2023/06/27 11:18:36;;;;;;;;;;;;;;;15.83;75.10;99008.93;1705654;83;20524;-63
2023/06/27 11:21:04;;;;;;;;;;;;;;;15.93;75.01;99006.87;1730015;82;20125;-65
2023/06/27 11:23:31;;;;;;;;;;;;;;;16.05;75.19;99009.84;1700321;83;20164;-65
2023/06/27 11:25:57;;;;;;;;;;;;;;;16.09;75.28;99013.40;1706629;83;20176;-64
2023/06/27 11:28:24;;;;;;;;;;;;;;;16.16;75.84;99013.75;1701696;83;20176;-66
2023/06/27 11:30:52;;;;;;;;;;;;;;;16.19;75.82;99010.87;1704994;84;20151;-65
2023/06/27 11:33:23;;;;;;;;;;;;;;;16.26;75.76;99008.06;1705145;82;20431;-66
2023/06/27 11:35:49;;;;;;;;;;;;;;;16.32;76.34;99014.62;1708590;84;20128;-67
2023/06/27 11:38:15;;;;;;;;;;;;;;;16.41;76.33;99013.03;1694140;83;20210;-66
2023/06/27 11:40:48;;;;;;;;;;;;;;;16.37;76.08;99019.53;1705474;82;20510;-67
2023/06/27 11:43:15;;;;;;;;;;;;;;;16.26;76.21;99018.60;1705036;83;20189;-66
2023/06/27 11:45:49;;;;;;;;;;;;;;;16.13;76.29;99021.88;1697407;83;20217;-64
2023/06/27 11:48:17;;;;;;;;;;;;;;;16.06;76.51;99025.98;1704899;83;20170;-63
2023/06/27 11:51:06;;;;;;;;;;;;;;;16.01;76.51;99042.63;1707440;83;20163;-65
2023/06/27 11:53:29;;;;;;;;;;;;;;;15.92;76.65;99038.94;1702323;82;20189;-65
2023/06/27 11:55:57;;;;;;;;;;;;;;;15.82;77.04;99030.96;1699911;82;20164;-66
2023/06/27 11:58:29;;;;;;;;;;;;;;;15.80;77.07;99040.77;1707771;82;20151;-66
2023/06/27 12:00:56;;;;;;;;;;;;;;;15.73;77.28;99040.88;1708494;83;20164;-66
2023/06/27 12:03:33;;;;;;;;;;;;;;;15.72;77.32;99035.76;1705501;83;20125;-66
2023/06/27 12:05:55;;;;;;;;;;;;;;;15.69;77.58;99032.89;1706054;82;20157;-63
2023/06/27 12:08:23;;;;;;;;;;;;;;;15.64;78.08;99041.10;1700294;83;20166;-65
2023/06/27 12:10:54;;;;;;;;;;;;;;;15.60;77.60;99036.19;1706020;84;20139;-64
2023/06/27 12:13:20;;;;;;;;;;;;;;;15.56;77.71;99026.88;1700874;83;20141;-62
2023/06/27 12:15:48;;;;;;;;;;;;;;;15.55;77.97;99030.48;1679585;84;20534;-63
2023/06/27 12:18:27;;;;;;;;;;;;;;;15.52;78.06;99030.73;1672959;84;20186;-63
2023/06/27 12:20:53;;;;;;;;;;;;;;;15.57;78.29;99029.41;1677419;84;20115;-64
2023/06/27 12:23:21;;;;;;;;;;;;;;;15.64;78.50;99040.27;1678994;84;20199;-62
2023/06/27 12:25:50;;;;;;;;;;;;;;;15.73;78.45;99039.56;1672340;85;20185;-65
2023/06/27 12:28:16;;;;;;;;;;;;;;;15.80;78.74;99043.40;1676122;83;20157;-62
2023/06/27 12:30:42;;;;;;;;;;;;;;;15.87;78.67;99039.30;1673965;85;20203;-64
2023/06/27 12:33:09;;;;;;;;;;;;;;;15.94;78.79;99046.73;1674590;84;20205;-62
2023/06/27 12:35:35;;;;;;;;;;;;;;;15.96;78.75;99055.32;1684641;84;20209;-63
2023/06/27 12:38:02;;;;;;;;;;;;;;;15.99;78.63;99065.60;1673748;85;20134;-64
2023/06/27 12:40:35;;;;;;;;;;;;;;;16.08;78.88;99062.26;1673218;85;20135;-63
2023/06/27 12:43:05;;;;;;;;;;;;;;;16.21;79.09;99048.43;1671927;85;20430;-63
2023/06/27 12:45:37;;;;;;;;;;;;;;;16.26;78.72;99042.31;1679809;83;20130;-62
2023/06/27 12:48:00;;;;;;;;;;;;;;;16.24;78.55;99039.44;1689276;83;20539;-63
2023/06/27 12:50:27;;;;;;;;;;;;;;;16.08;78.24;99043.82;1679755;84;20408;-65